sensor_id;sensor_type;location;lat;lon;timestamp;pressure;altitude;pressure_sealevel;temperature;humidity
49945;BME280;35838;49.134;9.212;2023-04-26T00:00:41;100020.25;;;7.77;100.00
49945;BME280;35838;49.134;9.212;2023-04-26T00:02:15;100014.22;;;7.76;100.00
49945;BME280;35838;49.134;9.212;2023-04-26T00:03:49;100018.50;;;7.74;100.00
49945;BME280;35838;49.134;9.212;2023-04-26T00:05:24;100017.53;;;7.63;100.00
49945;BME280;35838;49.134;9.212;2023-04-26T00:06:57;100023.59;;;7.65;100.00
49945;BME280;35838;49.134;9.212;2023-04-26T00:08:30;100027.94;;;7.69;100.00
49945;BME280;35838;49.134;9.212;2023-04-26T00:10:04;100019.31;;;7.65;100.00
49945;BME280;35838;49.134;9.212;2023-04-26T00:11:35;100020.25;;;7.74;100.00
49945;BME280;35838;49.134;9.212;2023-04-26T00:13:08;100013.34;;;7.76;100.00
49945;BME280;35838;49.134;9.212;2023-04-26T00:14:45;100015.13;;;7.81;100.00
49945;BME280;35838;49.134;9.212;2023-04-26T00:16:18;100012.53;;;7.78;100.00
49945;BME280;35838;49.134;9.212;2023-04-26T00:17:52;100020.34;;;7.84;100.00
49945;BME280;35838;49.134;9.212;2023-04-26T00:19:25;100020.34;;;7.86;100.00
49945;BME280;35838;49.134;9.212;2023-04-26T00:20:59;100019.44;;;7.79;100.00
49945;BME280;35838;49.134;9.212;2023-04-26T00:22:33;100019.44;;;7.79;100.00
49945;BME280;35838;49.134;9.212;2023-04-26T00:24:06;100021.13;;;7.80;100.00
49945;BME280;35838;49.134;9.212;2023-04-26T00:25:40;100021.13;;;7.80;100.00
49945;BME280;35838;49.134;9.212;2023-04-26T00:27:13;100026.34;;;7.83;100.00
49945;BME280;35838;49.134;9.212;2023-04-26T00:28:45;100023.75;;;7.82;100.00
49945;BME280;35838;49.134;9.212;2023-04-26T00:30:21;100035.84;;;7.86;100.00
49945;BME280;35838;49.134;9.212;2023-04-26T00:31:55;100028.94;;;7.82;100.00
49945;BME280;35838;49.134;9.212;2023-04-26T00:33:26;100025.50;;;7.84;100.00
49945;BME280;35838;49.134;9.212;2023-04-26T00:35:01;100022.78;;;7.72;100.00
49945;BME280;35838;49.134;9.212;2023-04-26T00:36:35;100028.88;;;7.77;100.00
49945;BME280;35838;49.134;9.212;2023-04-26T00:38:09;100026.31;;;7.77;100.00
49945;BME280;35838;49.134;9.212;2023-04-26T00:39:40;100033.22;;;7.81;100.00
49945;BME280;35838;49.134;9.212;2023-04-26T00:41:14;100031.47;;;7.77;100.00
49945;BME280;35838;49.134;9.212;2023-04-26T00:42:45;100027.09;;;7.70;100.00
49945;BME280;35838;49.134;9.212;2023-04-26T00:44:18;100023.53;;;7.60;100.00
49945;BME280;35838;49.134;9.212;2023-04-26T00:45:52;100032.19;;;7.61;100.00
49945;BME280;35838;49.134;9.212;2023-04-26T00:47:26;100040.78;;;7.61;100.00
49945;BME280;35838;49.134;9.212;2023-04-26T00:49:02;100037.34;;;7.61;100.00
49945;BME280;35838;49.134;9.212;2023-04-26T00:50:35;100039.88;;;7.58;100.00
49945;BME280;35838;49.134;9.212;2023-04-26T00:52:09;100035.56;;;7.58;100.00
49945;BME280;35838;49.134;9.212;2023-04-26T00:53:40;100039.88;;;7.58;100.00
49945;BME280;35838;49.134;9.212;2023-04-26T00:55:14;100041.63;;;7.59;100.00
49945;BME280;35838;49.134;9.212;2023-04-26T00:56:48;100045.00;;;7.51;100.00
49945;BME280;35838;49.134;9.212;2023-04-26T00:58:22;100040.66;;;7.50;100.00
49945;BME280;35838;49.134;9.212;2023-04-26T00:59:56;100034.66;;;7.55;100.00
49945;BME280;35838;49.134;9.212;2023-04-26T01:01:32;100040.63;;;7.44;100.00
49945;BME280;35838;49.134;9.212;2023-04-26T01:03:07;100048.94;;;7.20;100.00
49945;BME280;35838;49.134;9.212;2023-04-26T01:04:41;100049.94;;;7.33;100.00
49945;BME280;35838;49.134;9.212;2023-04-26T01:06:12;100049.09;;;7.34;100.00
49945;BME280;35838;49.134;9.212;2023-04-26T01:07:45;100053.38;;;7.33;100.00
49945;BME280;35838;49.134;9.212;2023-04-26T01:09:19;100045.72;;;7.40;100.00
49945;BME280;35838;49.134;9.212;2023-04-26T01:10:53;100045.69;;;7.38;100.00
49945;BME280;35838;49.134;9.212;2023-04-26T01:12:27;100045.56;;;7.26;100.00
49945;BME280;35838;49.134;9.212;2023-04-26T01:13:58;100046.38;;;7.23;100.00
49945;BME280;35838;49.134;9.212;2023-04-26T01:15:33;100048.09;;;7.22;100.00
49945;BME280;35838;49.134;9.212;2023-04-26T01:17:10;100054.06;;;7.18;100.00
49945;BME280;35838;49.134;9.212;2023-04-26T01:18:43;100052.31;;;7.16;100.00
49945;BME280;35838;49.134;9.212;2023-04-26T01:20:23;100059.22;;;7.17;100.00
49945;BME280;35838;49.134;9.212;2023-04-26T01:21:56;100055.72;;;7.13;100.00
49945;BME280;35838;49.134;9.212;2023-04-26T01:23:33;100054.78;;;7.05;100.00
49945;BME280;35838;49.134;9.212;2023-04-26T01:25:06;100048.81;;;7.11;100.00
49945;BME280;35838;49.134;9.212;2023-04-26T01:26:41;100052.25;;;7.08;100.00
49945;BME280;35838;49.134;9.212;2023-04-26T01:28:16;100048.81;;;7.09;100.00
49945;BME280;35838;49.134;9.212;2023-04-26T01:29:50;100047.88;;;7.04;100.00
49945;BME280;35838;49.134;9.212;2023-04-26T01:31:23;100050.44;;;7.04;100.00
49945;BME280;35838;49.134;9.212;2023-04-26T01:32:57;100052.19;;;7.03;100.00
49945;BME280;35838;49.134;9.212;2023-04-26T01:34:30;100051.28;;;7.00;100.00
49945;BME280;35838;49.134;9.212;2023-04-26T01:36:06;100049.53;;;6.99;100.00
49945;BME280;35838;49.134;9.212;2023-04-26T01:37:40;100048.59;;;6.94;100.00
49945;BME280;35838;49.134;9.212;2023-04-26T01:39:16;100052.84;;;6.88;100.00
49945;BME280;35838;49.134;9.212;2023-04-26T01:40:47;100051.16;;;6.90;100.00
49945;BME280;35838;49.134;9.212;2023-04-26T01:42:20;100048.47;;;6.83;100.00
49945;BME280;35838;49.134;9.212;2023-04-26T01:43:54;100049.22;;;6.74;100.00
49945;BME280;35838;49.134;9.212;2023-04-26T01:45:25;100050.06;;;6.73;100.00
49945;BME280;35838;49.134;9.212;2023-04-26T01:47:00;100044.84;;;6.71;100.00
49945;BME280;35838;49.134;9.212;2023-04-26T01:48:34;100047.47;;;6.73;100.00
49945;BME280;35838;49.134;9.212;2023-04-26T01:50:08;100040.53;;;6.69;100.00
49945;BME280;35838;49.134;9.212;2023-04-26T01:51:42;100036.34;;;6.76;100.00
49945;BME280;35838;49.134;9.212;2023-04-26T01:53:15;100045.88;;;6.81;100.00
49945;BME280;35838;49.134;9.212;2023-04-26T01:54:52;100040.72;;;6.84;100.00
49945;BME280;35838;49.134;9.212;2023-04-26T01:56:24;100041.63;;;6.88;100.00
49945;BME280;35838;49.134;9.212;2023-04-26T01:58:43;100045.94;;;6.86;100.00
49945;BME280;35838;49.134;9.212;2023-04-26T02:00:16;100045.09;;;6.88;100.00
49945;BME280;35838;49.134;9.212;2023-04-26T02:01:50;100052.84;;;6.88;100.00
49945;BME280;35838;49.134;9.212;2023-04-26T02:03:24;100047.63;;;6.85;100.00
49945;BME280;35838;49.134;9.212;2023-04-26T02:04:57;100039.88;;;6.85;100.00
49945;BME280;35838;49.134;9.212;2023-04-26T02:06:28;100040.66;;;6.78;100.00
49945;BME280;35838;49.134;9.212;2023-04-26T02:08:02;100040.72;;;6.84;100.00
49945;BME280;35838;49.134;9.212;2023-04-26T02:09:36;100042.53;;;6.88;100.00
49945;BME280;35838;49.134;9.212;2023-04-26T02:11:12;100045.13;;;6.90;100.00
49945;BME280;35838;49.134;9.212;2023-04-26T02:12:46;100041.63;;;6.88;100.00
49945;BME280;35838;49.134;9.212;2023-04-26T02:14:19;100041.63;;;6.85;100.00
49945;BME280;35838;49.134;9.212;2023-04-26T02:15:50;100037.34;;;6.87;100.00
49945;BME280;35838;49.134;9.212;2023-04-26T02:17:24;100039.00;;;6.83;100.00
49945;BME280;35838;49.134;9.212;2023-04-26T02:18:58;100032.19;;;6.88;100.00
49945;BME280;35838;49.134;9.212;2023-04-26T02:20:33;100041.63;;;6.88;100.00
49945;BME280;35838;49.134;9.212;2023-04-26T02:22:07;100043.22;;;6.77;100.00
49945;BME280;35838;49.134;9.212;2023-04-26T02:23:38;100046.72;;;6.80;100.00
49945;BME280;35838;49.134;9.212;2023-04-26T02:25:12;100044.13;;;6.80;100.00
49945;BME280;35838;49.134;9.212;2023-04-26T02:26:48;100045.75;;;6.75;100.00
49945;BME280;35838;49.134;9.212;2023-04-26T02:28:22;100048.34;;;6.73;100.00
49945;BME280;35838;49.134;9.212;2023-04-26T02:29:56;100043.19;;;6.73;100.00
49945;BME280;35838;49.134;9.212;2023-04-26T02:31:27;100043.19;;;6.73;100.00
49945;BME280;35838;49.134;9.212;2023-04-26T02:33:01;100050.97;;;6.77;100.00
49945;BME280;35838;49.134;9.212;2023-04-26T02:34:34;100049.22;;;6.74;100.00
49945;BME280;35838;49.134;9.212;2023-04-26T02:36:08;100048.28;;;6.70;100.00
49945;BME280;35838;49.134;9.212;2023-04-26T02:37:39;100040.41;;;6.59;100.00
49945;BME280;35838;49.134;9.212;2023-04-26T02:39:12;100046.44;;;6.62;100.00
49945;BME280;35838;49.134;9.212;2023-04-26T02:40:46;100047.22;;;6.54;100.00
49945;BME280;35838;49.134;9.212;2023-04-26T02:42:25;100055.72;;;6.47;100.00
49945;BME280;35838;49.134;9.212;2023-04-26T02:43:59;100047.22;;;6.54;100.00
49945;BME280;35838;49.134;9.212;2023-04-26T02:45:33;100047.22;;;6.54;100.00
49945;BME280;35838;49.134;9.212;2023-04-26T02:47:04;100048.81;;;6.46;100.00
49945;BME280;35838;49.134;9.212;2023-04-26T02:48:37;100054.81;;;6.47;100.00
49945;BME280;35838;49.134;9.212;2023-04-26T02:50:08;100053.91;;;6.43;100.00
49945;BME280;35838;49.134;9.212;2023-04-26T02:51:42;100050.34;;;6.35;100.00
49945;BME280;35838;49.134;9.212;2023-04-26T02:53:16;100051.19;;;6.32;100.00
49945;BME280;35838;49.134;9.212;2023-04-26T02:54:47;100052.88;;;6.32;100.00
49945;BME280;35838;49.134;9.212;2023-04-26T02:56:21;100053.84;;;6.37;100.00
49945;BME280;35838;49.134;9.212;2023-04-26T02:57:57;100051.19;;;6.32;100.00
49945;BME280;35838;49.134;9.212;2023-04-26T02:59:30;100046.88;;;6.33;100.00
49945;BME280;35838;49.134;9.212;2023-04-26T03:01:02;100056.28;;;6.29;100.00
49945;BME280;35838;49.134;9.212;2023-04-26T03:02:35;100046.84;;;6.30;100.00
49945;BME280;35838;49.134;9.212;2023-04-26T03:04:09;100054.53;;;6.28;100.00
49945;BME280;35838;49.134;9.212;2023-04-26T03:05:42;100051.19;;;6.34;100.00
49945;BME280;35838;49.134;9.212;2023-04-26T03:07:16;100050.28;;;6.29;100.00
49945;BME280;35838;49.134;9.212;2023-04-26T03:08:47;100050.16;;;6.22;100.00
49945;BME280;35838;49.134;9.212;2023-04-26T03:10:21;100053.47;;;6.15;100.00
49945;BME280;35838;49.134;9.212;2023-04-26T03:11:54;100055.13;;;6.11;100.00
49945;BME280;35838;49.134;9.212;2023-04-26T03:13:31;100052.47;;;6.05;100.00
49945;BME280;35838;49.134;9.212;2023-04-26T03:15:02;100057.53;;;6.01;100.00
49945;BME280;35838;49.134;9.212;2023-04-26T03:16:40;100055.81;;;6.01;100.00
49945;BME280;35838;49.134;9.212;2023-04-26T03:18:13;100050.53;;;5.93;100.00
49945;BME280;35838;49.134;9.212;2023-04-26T03:19:47;100060.81;;;5.93;100.00
49945;BME280;35838;49.134;9.212;2023-04-26T03:21:20;100061.59;;;5.89;100.00
49945;BME280;35838;49.134;9.212;2023-04-26T03:22:54;100069.88;;;5.71;100.00
49945;BME280;35838;49.134;9.212;2023-04-26T03:24:28;100056.38;;;5.86;100.00
49945;BME280;35838;49.134;9.212;2023-04-26T03:25:59;100061.69;;;5.95;100.00
49945;BME280;35838;49.134;9.212;2023-04-26T03:27:33;100071.84;;;5.86;100.00
49945;BME280;35838;49.134;9.212;2023-04-26T03:29:09;100071.81;;;5.85;100.00
49945;BME280;35838;49.134;9.212;2023-04-26T03:30:42;100073.75;;;5.96;100.00
49945;BME280;35838;49.134;9.212;2023-04-26T03:32:16;100066.16;;;6.03;100.00
49945;BME280;35838;49.134;9.212;2023-04-26T03:33:47;100072.06;;;5.99;100.00
49945;BME280;35838;49.134;9.212;2023-04-26T03:35:21;100062.59;;;5.96;100.00
49945;BME280;35838;49.134;9.212;2023-04-26T03:36:54;100071.91;;;5.89;100.00
49945;BME280;35838;49.134;9.212;2023-04-26T03:38:28;100064.13;;;5.86;100.00
49945;BME280;35838;49.134;9.212;2023-04-26T03:40:02;100076.13;;;5.86;100.00
49945;BME280;35838;49.134;9.212;2023-04-26T03:41:38;100076.00;;;5.78;100.00
49945;BME280;35838;49.134;9.212;2023-04-26T03:43:11;100076.91;;;5.80;100.00
49945;BME280;35838;49.134;9.212;2023-04-26T03:44:47;100069.13;;;5.77;100.00
49945;BME280;35838;49.134;9.212;2023-04-26T03:46:21;100072.56;;;5.79;100.00
49945;BME280;35838;49.134;9.212;2023-04-26T03:47:52;100073.31;;;5.72;100.00
49945;BME280;35838;49.134;9.212;2023-04-26T03:49:26;100071.41;;;5.61;100.00
49945;BME280;35838;49.134;9.212;2023-04-26T03:51:00;100076.72;;;5.71;100.00
49945;BME280;35838;49.134;9.212;2023-04-26T03:52:33;100066.38;;;5.68;100.00
49945;BME280;35838;49.134;9.212;2023-04-26T03:54:07;100067.16;;;5.63;100.00
49945;BME280;35838;49.134;9.212;2023-04-26T03:55:38;100074.94;;;5.67;100.00
49945;BME280;35838;49.134;9.212;2023-04-26T03:57:12;100080.03;;;5.63;100.00
49945;BME280;35838;49.134;9.212;2023-04-26T03:58:45;100077.47;;;5.65;100.00
49945;BME280;35838;49.134;9.212;2023-04-26T04:00:21;100073.13;;;5.62;100.00
49945;BME280;35838;49.134;9.212;2023-04-26T04:01:55;100067.16;;;5.63;100.00
49945;BME280;35838;49.134;9.212;2023-04-26T04:03:29;100076.63;;;5.66;100.00
49945;BME280;35838;49.134;9.212;2023-04-26T04:05:02;100068.03;;;5.64;100.00
49945;BME280;35838;49.134;9.212;2023-04-26T04:06:36;100073.13;;;5.61;100.00
49945;BME280;35838;49.134;9.212;2023-04-26T04:08:10;100076.50;;;5.58;100.00
49945;BME280;35838;49.134;9.212;2023-04-26T04:09:43;100068.88;;;5.63;100.00
49945;BME280;35838;49.134;9.212;2023-04-26T04:11:14;100071.38;;;5.60;100.00
49945;BME280;35838;49.134;9.212;2023-04-26T04:12:48;100071.28;;;5.55;100.00
49945;BME280;35838;49.134;9.212;2023-04-26T04:14:22;100069.44;;;5.48;100.00
49945;BME280;35838;49.134;9.212;2023-04-26T04:15:56;100075.41;;;5.45;100.00
49945;BME280;35838;49.134;9.212;2023-04-26T04:17:30;100078.03;;;5.48;100.00
49945;BME280;35838;49.134;9.212;2023-04-26T04:19:03;100070.22;;;5.44;100.00
49945;BME280;35838;49.134;9.212;2023-04-26T04:20:37;100075.50;;;5.50;100.00
49945;BME280;35838;49.134;9.212;2023-04-26T04:22:08;100075.41;;;5.45;100.00
49945;BME280;35838;49.134;9.212;2023-04-26T04:23:42;100078.09;;;5.53;100.00
49945;BME280;35838;49.134;9.212;2023-04-26T04:25:15;100073.00;;;5.55;100.00
49945;BME280;35838;49.134;9.212;2023-04-26T04:26:50;100070.53;;;5.61;100.00
49945;BME280;35838;49.134;9.212;2023-04-26T04:28:25;100065.31;;;5.56;100.00
49945;BME280;35838;49.134;9.212;2023-04-26T04:29:59;100071.28;;;5.55;100.00
49945;BME280;35838;49.134;9.212;2023-04-26T04:31:36;100076.34;;;5.49;100.00
49945;BME280;35838;49.134;9.212;2023-04-26T04:33:11;100077.28;;;5.56;100.00
49945;BME280;35838;49.134;9.212;2023-04-26T04:34:44;100080.69;;;5.53;100.00
49945;BME280;35838;49.134;9.212;2023-04-26T04:36:18;100080.69;;;5.53;100.00
49945;BME280;35838;49.134;9.212;2023-04-26T04:37:51;100082.59;;;5.62;100.00
49945;BME280;35838;49.134;9.212;2023-04-26T04:39:26;100081.66;;;5.58;100.00
49945;BME280;35838;49.134;9.212;2023-04-26T04:40:57;100082.44;;;5.56;100.00
49945;BME280;35838;49.134;9.212;2023-04-26T04:42:30;100083.25;;;5.52;100.00
49945;BME280;35838;49.134;9.212;2023-04-26T04:44:04;100080.88;;;5.62;100.00
49945;BME280;35838;49.134;9.212;2023-04-26T04:45:38;100080.03;;;5.65;100.00
49945;BME280;35838;49.134;9.212;2023-04-26T04:47:14;100082.78;;;5.73;100.00
49945;BME280;35838;49.134;9.212;2023-04-26T04:48:47;100079.38;;;5.74;100.00
49945;BME280;35838;49.134;9.212;2023-04-26T04:50:19;100081.19;;;5.79;100.00
49945;BME280;35838;49.134;9.212;2023-04-26T04:51:52;100079.47;;;5.80;100.00
49945;BME280;35838;49.134;9.212;2023-04-26T04:53:27;100085.41;;;5.76;100.00
49945;BME280;35838;49.134;9.212;2023-04-26T04:55:00;100082.97;;;5.84;100.00
49945;BME280;35838;49.134;9.212;2023-04-26T04:56:31;100087.16;;;5.77;100.00
49945;BME280;35838;49.134;9.212;2023-04-26T04:58:05;100082.88;;;5.77;100.00
49945;BME280;35838;49.134;9.212;2023-04-26T04:59:38;100094.00;;;5.76;100.00
49945;BME280;35838;49.134;9.212;2023-04-26T05:01:12;100093.97;;;5.75;100.00
49945;BME280;35838;49.134;9.212;2023-04-26T05:02:46;100100.78;;;5.71;100.00
49945;BME280;35838;49.134;9.212;2023-04-26T05:04:19;100099.13;;;5.75;100.00
49945;BME280;35838;49.134;9.212;2023-04-26T05:05:53;100096.66;;;5.81;100.00
49945;BME280;35838;49.134;9.212;2023-04-26T05:07:26;100099.06;;;5.72;100.00
49945;BME280;35838;49.134;9.212;2023-04-26T05:09:00;100099.81;;;5.66;100.00
49945;BME280;35838;49.134;9.212;2023-04-26T05:10:35;100106.06;;;5.79;100.00
49945;BME280;35838;49.134;9.212;2023-04-26T05:12:09;100105.31;;;5.86;100.00
49945;BME280;35838;49.134;9.212;2023-04-26T05:13:40;100108.88;;;5.91;100.00
49945;BME280;35838;49.134;9.212;2023-04-26T05:15:13;100102.06;;;5.95;100.00
49945;BME280;35838;49.134;9.212;2023-04-26T05:16:47;100102.97;;;5.99;100.00
49945;BME280;35838;49.134;9.212;2023-04-26T05:18:23;100109.81;;;5.96;100.00
49945;BME280;35838;49.134;9.212;2023-04-26T05:19:57;100110.72;;;5.99;100.00
49945;BME280;35838;49.134;9.212;2023-04-26T05:21:33;100108.94;;;5.94;100.00
49945;BME280;35838;49.134;9.212;2023-04-26T05:23:07;100112.44;;;5.98;100.00
49945;BME280;35838;49.134;9.212;2023-04-26T05:24:40;100112.94;;;5.80;100.00
49945;BME280;35838;49.134;9.212;2023-04-26T05:26:14;100118.94;;;5.79;100.00
49945;BME280;35838;49.134;9.212;2023-04-26T05:27:48;100114.34;;;5.62;100.00
49945;BME280;35838;49.134;9.212;2023-04-26T05:29:22;100116.06;;;5.63;100.00
49945;BME280;35838;49.134;9.212;2023-04-26T05:30:56;100120.41;;;5.66;100.00
49945;BME280;35838;49.134;9.212;2023-04-26T05:32:31;100127.31;;;5.67;100.00
49945;BME280;35838;49.134;9.212;2023-04-26T05:34:07;100128.22;;;5.71;100.00
49945;BME280;35838;49.134;9.212;2023-04-26T05:35:40;100130.06;;;5.78;100.00
49945;BME280;35838;49.134;9.212;2023-04-26T05:37:14;100130.16;;;5.81;100.00
49945;BME280;35838;49.134;9.212;2023-04-26T05:38:47;100130.31;;;5.89;100.00
49945;BME280;35838;49.134;9.212;2023-04-26T05:40:21;100128.59;;;5.91;100.00
49945;BME280;35838;49.134;9.212;2023-04-26T05:41:56;100133.09;;;6.00;100.00
49945;BME280;35838;49.134;9.212;2023-04-26T05:43:29;100127.75;;;5.90;100.00
49945;BME280;35838;49.134;9.212;2023-04-26T05:45:03;100132.00;;;5.88;100.00
49945;BME280;35838;49.134;9.212;2023-04-26T05:46:37;100132.25;;;6.01;100.00
49945;BME280;35838;49.134;9.212;2023-04-26T05:48:10;100134.94;;;6.07;100.00
49945;BME280;35838;49.134;9.212;2023-04-26T05:49:46;100135.13;;;6.18;100.00
49945;BME280;35838;49.134;9.212;2023-04-26T05:51:20;100125.06;;;6.32;100.00
49945;BME280;35838;49.134;9.212;2023-04-26T05:52:54;100125.97;;;6.34;100.00
49945;BME280;35838;49.134;9.212;2023-04-26T05:54:27;100123.47;;;6.40;100.00
49945;BME280;35838;49.134;9.212;2023-04-26T05:56:01;100123.53;;;6.45;100.00
49945;BME280;35838;49.134;9.212;2023-04-26T05:57:35;100124.59;;;6.54;100.00
49945;BME280;35838;49.134;9.212;2023-04-26T05:59:08;100127.69;;;6.35;100.00
49945;BME280;35838;49.134;9.212;2023-04-26T06:00:43;100124.06;;;6.23;100.00
49945;BME280;35838;49.134;9.212;2023-04-26T06:02:17;100130.69;;;6.09;100.00
49945;BME280;35838;49.134;9.212;2023-04-26T06:03:50;100141.00;;;6.09;100.00
49945;BME280;35838;49.134;9.212;2023-04-26T06:05:27;100129.06;;;6.14;100.00
49945;BME280;35838;49.134;9.212;2023-04-26T06:07:00;100129.28;;;6.26;100.00
49945;BME280;35838;49.134;9.212;2023-04-26T06:08:34;100135.59;;;6.46;100.00
49945;BME280;35838;49.134;9.212;2023-04-26T06:10:08;100126.25;;;6.52;100.00
49945;BME280;35838;49.134;9.212;2023-04-26T06:11:42;100128.00;;;6.53;100.00
49945;BME280;35838;49.134;9.212;2023-04-26T06:13:16;100127.91;;;6.47;100.00
49945;BME280;35838;49.134;9.212;2023-04-26T06:14:50;100128.81;;;6.51;100.00
49945;BME280;35838;49.134;9.212;2023-04-26T06:16:23;100130.66;;;6.58;100.00
49945;BME280;35838;49.134;9.212;2023-04-26T06:17:57;100125.56;;;6.63;100.00
49945;BME280;35838;49.134;9.212;2023-04-26T06:19:31;100124.06;;;6.77;100.00
49945;BME280;35838;49.134;9.212;2023-04-26T06:21:07;100123.28;;;6.81;100.00
49945;BME280;35838;49.134;9.212;2023-04-26T06:22:41;100123.34;;;6.86;100.00
49945;BME280;35838;49.134;9.212;2023-04-26T06:24:14;100118.06;;;6.78;100.00
49945;BME280;35838;49.134;9.212;2023-04-26T06:25:48;100123.41;;;6.90;100.00
49945;BME280;35838;49.134;9.212;2023-04-26T06:27:21;100120.00;;;6.93;100.00
49945;BME280;35838;49.134;9.212;2023-04-26T06:28:55;100124.19;;;6.86;100.00
49945;BME280;35838;49.134;9.212;2023-04-26T06:30:29;100118.13;;;6.84;100.00
49945;BME280;35838;49.134;9.212;2023-04-26T06:32:03;100129.38;;;6.88;100.00
49945;BME280;35838;49.134;9.212;2023-04-26T06:33:36;100127.69;;;6.90;100.00
49945;BME280;35838;49.134;9.212;2023-04-26T06:35:10;100125.66;;;6.69;100.00
49945;BME280;35838;49.134;9.212;2023-04-26T06:36:46;100129.13;;;6.71;100.00
49945;BME280;35838;49.134;9.212;2023-04-26T06:38:20;100128.31;;;6.75;100.00
49945;BME280;35838;49.134;9.212;2023-04-26T06:39:53;100122.44;;;6.84;100.00
49945;BME280;35838;49.134;9.212;2023-04-26T06:41:27;100125.31;;;7.04;100.00
49945;BME280;35838;49.134;9.212;2023-04-26T06:43:01;100121.59;;;6.86;100.00
49945;BME280;35838;49.134;9.212;2023-04-26T06:44:34;100116.31;;;6.77;100.00
49945;BME280;35838;49.134;9.212;2023-04-26T06:46:08;100127.75;;;6.95;100.00
49945;BME280;35838;49.134;9.212;2023-04-26T06:47:41;100121.09;;;7.09;100.00
49945;BME280;35838;49.134;9.212;2023-04-26T06:49:15;100122.97;;;7.24;100.00
49945;BME280;35838;49.134;9.212;2023-04-26T06:50:48;100120.56;;;7.36;100.00
49945;BME280;35838;49.134;9.212;2023-04-26T06:52:25;100122.38;;;7.42;100.00
49945;BME280;35838;49.134;9.212;2023-04-26T06:53:59;100115.53;;;7.47;100.00
49945;BME280;35838;49.134;9.212;2023-04-26T06:55:33;100119.06;;;7.56;100.00
49945;BME280;35838;49.134;9.212;2023-04-26T06:57:06;100103.66;;;7.65;100.00
49945;BME280;35838;49.134;9.212;2023-04-26T06:58:44;100111.47;;;7.68;100.00
49945;BME280;35838;49.134;9.212;2023-04-26T07:00:30;100105.50;;;7.75;100.00
49945;BME280;35838;49.134;9.212;2023-04-26T07:02:03;100109.78;;;7.72;100.00
49945;BME280;35838;49.134;9.212;2023-04-26T07:03:37;100101.22;;;7.77;100.00
49945;BME280;35838;49.134;9.212;2023-04-26T07:05:12;100096.97;;;7.82;100.00
49945;BME280;35838;49.134;9.212;2023-04-26T07:06:45;100101.06;;;7.62;100.00
49945;BME280;35838;49.134;9.212;2023-04-26T07:08:22;100098.50;;;7.65;100.00
49945;BME280;35838;49.134;9.212;2023-04-26T07:09:56;100101.19;;;7.71;100.00
49945;BME280;35838;49.134;9.212;2023-04-26T07:11:29;100099.53;;;7.79;100.00
49945;BME280;35838;49.134;9.212;2023-04-26T07:13:03;100099.53;;;7.79;100.00
49945;BME280;35838;49.134;9.212;2023-04-26T07:14:37;100099.44;;;7.70;100.00
49945;BME280;35838;49.134;9.212;2023-04-26T07:16:12;100094.22;;;7.68;100.00
49945;BME280;35838;49.134;9.212;2023-04-26T07:17:46;100094.22;;;7.65;100.00
49945;BME280;35838;49.134;9.212;2023-04-26T07:19:19;100083.16;;;7.80;100.00
49945;BME280;35838;49.134;9.212;2023-04-26T07:20:53;100086.53;;;7.70;100.00
49945;BME280;35838;49.134;9.212;2023-04-26T07:22:27;100086.56;;;7.75;100.00
49945;BME280;35838;49.134;9.212;2023-04-26T07:24:03;100089.31;;;7.92;100.00
49945;BME280;35838;49.134;9.212;2023-04-26T07:25:37;100080.69;;;7.91;100.00
49945;BME280;35838;49.134;9.212;2023-04-26T07:27:11;100076.53;;;8.07;100.00
49945;BME280;35838;49.134;9.212;2023-04-26T07:28:44;100080.09;;;8.22;100.00
49945;BME280;35838;49.134;9.212;2023-04-26T07:30:18;100073.28;;;8.33;100.00
49945;BME280;35838;49.134;9.212;2023-04-26T07:31:52;100069.09;;;8.46;100.00
49945;BME280;35838;49.134;9.212;2023-04-26T07:33:26;100067.38;;;8.46;100.00
49945;BME280;35838;49.134;9.212;2023-04-26T07:35:00;100065.72;;;8.53;100.00
49945;BME280;35838;49.134;9.212;2023-04-26T07:36:34;100060.56;;;8.56;100.00
49945;BME280;35838;49.134;9.212;2023-04-26T07:38:07;100061.47;;;8.63;100.00
49945;BME280;35838;49.134;9.212;2023-04-26T07:39:46;100064.09;;;8.69;100.00
49945;BME280;35838;49.134;9.212;2023-04-26T07:41:20;100062.38;;;8.71;100.00
49945;BME280;35838;49.134;9.212;2023-04-26T07:42:53;100061.31;;;8.41;100.00
49945;BME280;35838;49.134;9.212;2023-04-26T07:44:27;100060.56;;;8.55;100.00
49945;BME280;35838;49.134;9.212;2023-04-26T07:46:01;100060.34;;;8.31;100.00
49945;BME280;35838;49.134;9.212;2023-04-26T07:47:34;100067.28;;;8.36;100.00
49945;BME280;35838;49.134;9.212;2023-04-26T07:49:08;100067.47;;;8.54;100.00
49945;BME280;35838;49.134;9.212;2023-04-26T07:50:41;100057.19;;;8.68;100.00
49945;BME280;35838;49.134;9.212;2023-04-26T07:52:15;100059.84;;;8.82;98.89
49945;BME280;35838;49.134;9.212;2023-04-26T07:53:50;100055.56;;;8.89;100.00
49945;BME280;35838;49.134;9.212;2023-04-26T07:55:27;100061.69;;;9.00;100.00
49945;BME280;35838;49.134;9.212;2023-04-26T07:57:01;100056.53;;;9.06;97.66
49945;BME280;35838;49.134;9.212;2023-04-26T07:58:34;100056.38;;;8.78;96.36
49945;BME280;35838;49.134;9.212;2023-04-26T08:00:09;100055.63;;;9.00;96.21
49945;BME280;35838;49.134;9.212;2023-04-26T08:01:43;100055.56;;;8.81;93.80
49945;BME280;35838;49.134;9.212;2023-04-26T08:03:16;100068.53;;;8.92;95.07
49945;BME280;35838;49.134;9.212;2023-04-26T08:04:50;100054.78;;;8.99;95.59
49945;BME280;35838;49.134;9.212;2023-04-26T08:06:25;100055.66;;;9.09;94.58
49945;BME280;35838;49.134;9.212;2023-04-26T08:07:59;100060.91;;;9.20;96.74
49945;BME280;35838;49.134;9.212;2023-04-26T08:09:33;100056.63;;;9.36;94.75
49945;BME280;35838;49.134;9.212;2023-04-26T08:11:09;100048.91;;;9.44;92.93